createdAt,value
2022-11-29T00:00:32.029Z,58.20
2022-11-29T00:01:32.030Z,59.70
2022-11-29T00:02:32.052Z,55.40
2022-11-29T00:03:31.980Z,59.30
2022-11-29T00:04:31.967Z,61.30
2022-11-29T00:05:32.007Z,66.50
2022-11-29T00:06:32.022Z,67.20
2022-11-29T00:07:32.057Z,70.20
2022-11-29T00:08:31.917Z,57.40
2022-11-29T00:09:31.901Z,82.80
2022-11-29T00:10:31.901Z,64.40
2022-11-29T00:11:31.871Z,89.00
2022-11-29T00:12:31.889Z,69.50
2022-11-29T00:13:31.911Z,82.70
2022-11-29T00:14:31.965Z,69.30
2022-11-29T00:15:31.825Z,71.90
2022-11-29T00:16:31.909Z,71.30
2022-11-29T00:17:31.819Z,82.30
2022-11-29T00:18:31.862Z,69.40
2022-11-29T00:19:31.798Z,74.70
2022-11-29T00:20:31.817Z,76.70
2022-11-29T00:21:32.788Z,82.90
2022-11-29T00:22:31.787Z,78.70
2022-11-29T00:23:31.743Z,86.40
2022-11-29T00:24:31.786Z,82.90
2022-11-29T00:25:31.728Z,98.40
2022-11-29T00:26:31.724Z,88.40
2022-11-29T00:27:31.747Z,81.30
2022-11-29T00:28:31.789Z,85.10
2022-11-29T00:29:31.696Z,77.00
2022-11-29T00:30:31.749Z,95.80
2022-11-29T00:31:31.672Z,87.40
2022-11-29T00:32:32.579Z,101.00
2022-11-29T00:33:32.597Z,86.40
2022-11-29T00:34:31.761Z,79.00
2022-11-29T00:35:33.196Z,78.60
2022-11-29T00:36:31.603Z,81.30
2022-11-29T00:37:31.622Z,87.70
2022-11-29T00:38:31.585Z,76.80
2022-11-29T00:39:31.558Z,84.40
2022-11-29T00:40:31.607Z,69.80
2022-11-29T00:41:31.545Z,76.50
2022-11-29T00:42:31.532Z,83.30
2022-11-29T00:43:31.521Z,76.20
2022-11-29T00:44:31.512Z,93.30
2022-11-29T00:45:31.537Z,87.60
2022-11-29T00:46:31.497Z,89.00
2022-11-29T00:47:31.474Z,102.70
2022-11-29T00:48:31.463Z,83.90
2022-11-29T00:49:31.479Z,95.00
2022-11-29T00:50:31.475Z,77.10
2022-11-29T00:51:31.425Z,69.10
2022-11-29T00:52:31.431Z,87.00
2022-11-29T00:53:31.468Z,86.60
2022-11-29T00:54:31.394Z,105.00
2022-11-29T00:55:31.409Z,91.00
2022-11-29T00:56:31.367Z,89.80
2022-11-29T00:57:31.350Z,130.00
2022-11-29T00:58:31.355Z,113.50
2022-11-29T00:59:31.327Z,96.90
2022-11-29T01:00:31.362Z,115.40
2022-11-29T01:01:31.472Z,102.10
2022-11-29T01:02:31.423Z,93.00
2022-11-29T01:03:31.290Z,110.10
2022-11-29T01:04:31.293Z,132.50
2022-11-29T01:05:31.266Z,150.30
2022-11-29T01:06:31.316Z,130.00
2022-11-29T01:07:31.351Z,93.80
2022-11-29T01:08:31.242Z,119.20
2022-11-29T01:09:31.225Z,92.40
2022-11-29T01:10:31.273Z,111.00
2022-11-29T01:11:31.279Z,117.70
2022-11-29T01:12:31.200Z,112.40
2022-11-29T01:13:31.166Z,130.80
2022-11-29T01:14:31.169Z,149.30
2022-11-29T01:15:31.144Z,118.10
2022-11-29T01:16:31.300Z,131.60
2022-11-29T01:17:31.124Z,108.30
2022-11-29T01:18:31.124Z,98.80
2022-11-29T01:19:31.095Z,108.30
2022-11-29T01:20:31.163Z,105.40
2022-11-29T01:21:31.124Z,124.50
2022-11-29T01:22:31.152Z,109.60
2022-11-29T01:23:31.065Z,119.50
2022-11-29T01:24:31.061Z,102.60
2022-11-29T01:25:31.222Z,108.20
2022-11-29T01:26:31.032Z,111.90
2022-11-29T01:27:31.098Z,125.10
2022-11-29T01:28:31.011Z,108.40
2022-11-29T01:29:31.024Z,122.30
2022-11-29T01:30:31.014Z,101.60
2022-11-29T01:31:30.968Z,141.40
2022-11-29T01:32:30.967Z,158.50
2022-11-29T01:33:30.944Z,103.40
2022-11-29T01:34:30.979Z,180.70
2022-11-29T01:35:30.924Z,155.80
2022-11-29T01:36:30.929Z,135.10
2022-11-29T01:37:30.897Z,133.60
2022-11-29T01:38:30.955Z,104.00
2022-11-29T01:39:30.921Z,98.80
2022-11-29T01:40:30.895Z,128.10
2022-11-29T01:41:30.855Z,112.20
2022-11-29T01:42:30.912Z,153.50
2022-11-29T01:43:30.838Z,139.80
2022-11-29T01:44:30.873Z,155.30
2022-11-29T01:45:30.811Z,130.20
2022-11-29T01:46:30.885Z,122.90
2022-11-29T01:47:30.781Z,116.00
2022-11-29T01:48:30.797Z,141.80
2022-11-29T01:49:30.806Z,142.50
2022-11-29T01:50:30.863Z,127.30
2022-11-29T01:51:30.763Z,138.00
2022-11-29T01:52:30.745Z,99.20
2022-11-29T01:53:30.722Z,128.60
2022-11-29T01:54:30.763Z,122.00
2022-11-29T01:55:30.775Z,111.20
2022-11-29T01:56:30.699Z,119.70
2022-11-29T01:57:30.669Z,122.50
2022-11-29T01:58:30.683Z,118.90
2022-11-29T01:59:30.694Z,156.80
2022-11-29T02:00:30.650Z,125.30
2022-11-29T02:01:31.783Z,157.80
2022-11-29T02:02:30.682Z,99.90
2022-11-29T02:03:30.656Z,116.00
2022-11-29T02:04:30.654Z,144.70
2022-11-29T02:05:30.589Z,111.80
2022-11-29T02:06:30.591Z,121.00
2022-11-29T02:07:30.652Z,112.90
2022-11-29T02:08:30.611Z,122.00
2022-11-29T02:09:30.564Z,112.70
2022-11-29T02:10:30.543Z,118.10
2022-11-29T02:11:30.542Z,142.00
2022-11-29T02:12:30.770Z,128.90
2022-11-29T02:13:30.524Z,140.00
2022-11-29T02:14:30.504Z,102.30
2022-11-29T02:15:30.518Z,138.50
2022-11-29T02:16:30.488Z,109.30
2022-11-29T02:17:30.450Z,148.40
2022-11-29T02:18:30.629Z,144.20
2022-11-29T02:19:30.429Z,104.10
2022-11-29T02:20:30.490Z,117.00
2022-11-29T02:21:30.403Z,165.40
2022-11-29T02:22:30.405Z,144.00
2022-11-29T02:23:30.383Z,157.60
2022-11-29T02:24:30.391Z,117.10
2022-11-29T02:25:30.393Z,109.70
2022-11-29T02:26:30.372Z,114.30
2022-11-29T02:27:30.344Z,153.00
2022-11-29T02:28:30.417Z,141.20
2022-11-29T02:29:30.328Z,152.90
2022-11-29T02:30:30.423Z,175.10
2022-11-29T02:31:30.344Z,136.50
2022-11-29T02:32:30.318Z,146.40
2022-11-29T02:33:30.285Z,138.20
2022-11-29T02:34:30.283Z,159.10
2022-11-29T02:35:30.308Z,139.80
2022-11-29T02:36:30.252Z,105.90
2022-11-29T02:37:30.221Z,128.90
2022-11-29T02:38:30.237Z,108.60
2022-11-29T02:39:30.290Z,95.90
2022-11-29T02:40:30.187Z,154.90
2022-11-29T02:41:30.196Z,140.20
2022-11-29T02:42:30.229Z,105.30
2022-11-29T02:43:30.179Z,107.90
2022-11-29T02:44:30.145Z,92.50
2022-11-29T02:45:30.193Z,121.60
2022-11-29T02:46:30.180Z,98.80
2022-11-29T02:47:30.135Z,153.00
2022-11-29T02:48:30.107Z,114.70
2022-11-29T02:49:30.143Z,91.20
2022-11-29T02:50:31.077Z,113.80
2022-11-29T02:51:30.084Z,137.10
2022-11-29T02:52:30.056Z,108.00
2022-11-29T02:53:30.073Z,114.70
2022-11-29T02:54:30.081Z,102.20
2022-11-29T02:55:30.043Z,106.10
2022-11-29T02:56:30.013Z,110.30
2022-11-29T02:57:30.008Z,156.20
2022-11-29T02:58:29.988Z,145.70
2022-11-29T02:59:29.995Z,134.50
2022-11-29T03:00:30.007Z,155.40
2022-11-29T03:01:30.021Z,157.70
2022-11-29T03:02:30.047Z,164.00
2022-11-29T03:03:29.941Z,158.10
2022-11-29T03:04:31.112Z,158.50
2022-11-29T03:05:29.963Z,146.70
2022-11-29T03:06:30.001Z,153.80
2022-11-29T03:07:30.083Z,111.80
2022-11-29T03:08:29.879Z,178.80
2022-11-29T03:09:29.886Z,180.50
2022-11-29T03:10:29.896Z,143.70
2022-11-29T03:11:29.859Z,215.90
2022-11-29T03:12:29.833Z,151.70
2022-11-29T03:13:29.876Z,122.80
2022-11-29T03:14:29.805Z,128.50
2022-11-29T03:15:29.910Z,162.90
2022-11-29T03:16:29.790Z,168.10
2022-11-29T03:17:29.852Z,125.50
2022-11-29T03:18:29.767Z,152.30
2022-11-29T03:19:29.768Z,145.40
2022-11-29T03:20:29.770Z,150.00
2022-11-29T03:21:29.846Z,150.50
2022-11-29T03:22:29.723Z,180.60
2022-11-29T03:23:29.729Z,133.30
2022-11-29T03:24:29.759Z,182.80
2022-11-29T03:25:29.784Z,131.40
2022-11-29T03:26:29.692Z,156.50
2022-11-29T03:27:29.746Z,141.80
2022-11-29T03:28:29.658Z,230.00
2022-11-29T03:29:29.670Z,165.40
2022-11-29T03:30:29.646Z,127.80
2022-11-29T03:31:29.696Z,192.90
2022-11-29T03:32:29.612Z,151.00
2022-11-29T03:33:29.644Z,136.60
2022-11-29T03:34:29.639Z,161.30
2022-11-29T03:35:29.678Z,170.90
2022-11-29T03:36:29.564Z,145.80
2022-11-29T03:37:29.616Z,157.70
2022-11-29T03:38:29.557Z,140.00
2022-11-29T03:39:29.553Z,142.50
2022-11-29T03:40:29.569Z,141.40
2022-11-29T03:41:29.527Z,180.10
2022-11-29T03:42:29.534Z,142.80
2022-11-29T03:43:29.510Z,140.70
2022-11-29T03:44:29.490Z,201.20
2022-11-29T03:45:29.483Z,157.30
2022-11-29T03:46:29.492Z,123.90
2022-11-29T03:47:29.450Z,231.90
2022-11-29T03:48:29.477Z,138.80
2022-11-29T03:49:29.439Z,164.20
2022-11-29T03:50:29.416Z,137.80
2022-11-29T03:51:30.106Z,160.70
2022-11-29T03:52:29.383Z,206.40
2022-11-29T03:53:30.071Z,162.00
2022-11-29T03:54:29.370Z,156.90
2022-11-29T03:55:29.409Z,158.60
2022-11-29T03:56:29.386Z,180.60
2022-11-29T03:57:29.355Z,148.10
2022-11-29T03:58:30.059Z,140.80
2022-11-29T03:59:29.360Z,164.90
2022-11-29T04:00:29.341Z,175.00
2022-11-29T04:01:29.344Z,162.00
2022-11-29T04:02:29.386Z,179.10
2022-11-29T04:03:29.277Z,171.10
2022-11-29T04:04:29.258Z,122.00
2022-11-29T04:05:29.260Z,117.40
2022-11-29T04:06:29.263Z,206.70
2022-11-29T04:07:29.243Z,174.00
2022-11-29T04:08:29.217Z,146.20
2022-11-29T04:09:29.214Z,138.80
2022-11-29T04:10:29.188Z,246.70
2022-11-29T04:11:29.232Z,213.80
2022-11-29T04:12:29.160Z,178.90
2022-11-29T04:13:29.161Z,160.40
2022-11-29T04:14:29.142Z,177.90
2022-11-29T04:15:29.191Z,124.70
2022-11-29T04:16:29.155Z,230.00
2022-11-29T04:17:29.170Z,230.30
2022-11-29T04:18:29.092Z,168.80
2022-11-29T04:19:29.112Z,118.80
2022-11-29T04:20:29.082Z,230.70
2022-11-29T04:21:29.077Z,196.80
2022-11-29T04:22:29.140Z,138.60
2022-11-29T04:23:29.054Z,174.10
2022-11-29T04:24:29.095Z,115.90
2022-11-29T04:25:29.037Z,168.70
2022-11-29T04:26:34.667Z,164.60
2022-11-29T04:27:29.051Z,151.30
2022-11-29T04:28:28.981Z,120.70
2022-11-29T04:29:28.987Z,107.90
2022-11-29T04:30:28.977Z,137.80
2022-11-29T04:31:29.039Z,135.10
2022-11-29T04:32:29.036Z,138.00
2022-11-29T04:33:28.964Z,110.90
2022-11-29T04:34:28.926Z,100.30
2022-11-29T04:35:28.953Z,140.50
2022-11-29T04:36:28.904Z,115.70
2022-11-29T04:37:28.944Z,117.40
2022-11-29T04:38:28.878Z,86.40
2022-11-29T04:39:28.871Z,133.10
2022-11-29T04:40:28.933Z,120.90
2022-11-29T04:41:28.862Z,129.30
2022-11-29T04:42:28.903Z,85.30
2022-11-29T04:43:28.834Z,94.90
2022-11-29T04:44:28.984Z,100.70
2022-11-29T04:45:28.851Z,103.60
2022-11-29T04:46:28.825Z,115.90
2022-11-29T04:47:28.789Z,105.20
2022-11-29T04:48:28.833Z,79.60
2022-11-29T04:49:28.806Z,113.40
2022-11-29T04:50:28.749Z,88.20
2022-11-29T04:51:28.743Z,93.80
2022-11-29T04:52:28.716Z,79.00
2022-11-29T04:53:28.730Z,85.50
2022-11-29T04:54:28.731Z,100.60
2022-11-29T04:55:31.055Z,121.60
2022-11-29T04:56:28.707Z,108.50
2022-11-29T04:57:28.677Z,90.80
2022-11-29T04:58:28.662Z,107.30
2022-11-29T04:59:28.669Z,86.60
2022-11-29T05:00:28.714Z,104.80
2022-11-29T05:01:28.656Z,101.60
2022-11-29T05:02:28.673Z,89.30
2022-11-29T05:03:28.611Z,103.60
2022-11-29T05:04:28.582Z,86.40
2022-11-29T05:05:28.593Z,100.20
2022-11-29T05:06:28.560Z,99.60
2022-11-29T05:07:28.630Z,109.60
2022-11-29T05:08:28.540Z,104.00
2022-11-29T05:09:28.547Z,105.90
2022-11-29T05:10:28.524Z,82.20
2022-11-29T05:11:28.520Z,85.30
2022-11-29T05:12:28.536Z,78.10
2022-11-29T05:13:28.496Z,76.30
2022-11-29T05:14:28.490Z,82.90
2022-11-29T05:15:28.535Z,99.20
2022-11-29T05:16:28.518Z,97.20
2022-11-29T05:17:28.489Z,106.00
2022-11-29T05:18:28.469Z,102.30
2022-11-29T05:19:28.428Z,71.30
2022-11-29T05:20:28.402Z,68.30
2022-11-29T05:21:28.408Z,80.90
2022-11-29T05:22:28.429Z,71.70
2022-11-29T05:23:28.422Z,66.60
2022-11-29T05:24:28.366Z,93.80
2022-11-29T05:25:28.376Z,76.40
2022-11-29T05:26:28.340Z,66.60
2022-11-29T05:27:28.338Z,60.90
2022-11-29T05:28:28.360Z,62.80
2022-11-29T05:29:28.322Z,66.70
2022-11-29T05:30:28.302Z,67.00
2022-11-29T05:31:28.371Z,69.50
2022-11-29T05:32:28.339Z,64.10
2022-11-29T05:33:28.316Z,63.90
2022-11-29T05:34:34.501Z,60.00
2022-11-29T05:35:28.313Z,52.40
2022-11-29T05:36:28.277Z,53.10
2022-11-29T05:37:28.228Z,56.50
2022-11-29T05:38:28.208Z,55.50
2022-11-29T05:39:28.251Z,51.70
2022-11-29T05:40:28.185Z,74.20
2022-11-29T05:41:28.192Z,62.10
2022-11-29T05:42:28.193Z,59.60
2022-11-29T05:43:28.163Z,47.90
2022-11-29T05:44:28.135Z,48.40
2022-11-29T05:45:28.143Z,50.60
2022-11-29T05:46:28.431Z,48.00
2022-11-29T05:47:31.322Z,46.80
2022-11-29T05:48:28.128Z,54.20
2022-11-29T05:49:28.098Z,53.00
2022-11-29T05:50:28.074Z,57.00
2022-11-29T05:51:28.095Z,40.30
2022-11-29T05:52:28.135Z,46.10
2022-11-29T05:53:28.060Z,47.30
2022-11-29T05:54:28.036Z,49.80
2022-11-29T05:55:28.040Z,46.20
2022-11-29T05:56:28.012Z,46.10
2022-11-29T05:57:28.066Z,43.90
2022-11-29T05:58:30.492Z,45.90
2022-11-29T05:59:28.004Z,46.60
2022-11-29T06:00:27.970Z,40.80
2022-11-29T06:01:27.956Z,39.10
2022-11-29T06:02:28.073Z,46.50
2022-11-29T06:03:27.992Z,51.50
2022-11-29T06:04:27.966Z,40.20
2022-11-29T06:05:27.917Z,40.00
2022-11-29T06:06:27.891Z,44.90
2022-11-29T06:07:28.176Z,40.40
2022-11-29T06:08:27.956Z,34.90
2022-11-29T06:09:27.914Z,38.60
2022-11-29T06:10:27.850Z,39.20
2022-11-29T06:11:27.876Z,42.20
2022-11-29T06:12:27.825Z,40.30
2022-11-29T06:13:27.840Z,37.90
2022-11-29T06:14:27.893Z,35.30
2022-11-29T06:15:27.863Z,39.50
2022-11-29T06:16:27.865Z,38.60
2022-11-29T06:17:27.786Z,37.00
2022-11-29T06:18:27.825Z,41.60
2022-11-29T06:19:27.814Z,39.40
2022-11-29T06:20:27.853Z,42.80
2022-11-29T06:21:27.751Z,39.10
2022-11-29T06:22:27.778Z,42.90
2022-11-29T06:23:27.733Z,37.20
2022-11-29T06:24:27.721Z,40.10
2022-11-29T06:25:27.752Z,39.50
2022-11-29T06:26:27.686Z,45.70
2022-11-29T06:27:27.722Z,41.60
2022-11-29T06:28:27.670Z,38.90
2022-11-29T06:29:33.708Z,34.90
2022-11-29T06:30:33.630Z,35.80
2022-11-29T06:31:33.731Z,34.10
2022-11-29T06:32:27.798Z,37.10
2022-11-29T06:33:27.599Z,39.70
2022-11-29T06:34:30.662Z,34.70
2022-11-29T06:35:27.590Z,37.90
2022-11-29T06:36:27.588Z,34.00
2022-11-29T06:37:27.568Z,39.30
2022-11-29T06:38:27.654Z,34.80
2022-11-29T06:39:27.554Z,35.90
2022-11-29T06:40:27.588Z,33.90
2022-11-29T06:41:27.514Z,38.10
2022-11-29T06:42:27.529Z,36.40
2022-11-29T06:43:27.563Z,34.60
2022-11-29T06:44:27.567Z,40.90
2022-11-29T06:45:27.526Z,41.10
2022-11-29T06:46:27.753Z,38.80
2022-11-29T06:47:28.093Z,37.00
2022-11-29T06:48:27.432Z,38.80
2022-11-29T06:49:27.422Z,36.80
2022-11-29T06:50:27.532Z,33.50
2022-11-29T06:51:27.465Z,32.60
2022-11-29T06:52:27.392Z,33.10
2022-11-29T06:53:27.383Z,34.80
2022-11-29T06:54:27.447Z,33.70
2022-11-29T06:55:27.345Z,39.30
2022-11-29T06:56:27.390Z,33.80
2022-11-29T06:57:27.380Z,39.60
2022-11-29T06:58:31.461Z,31.10
2022-11-29T06:59:27.366Z,36.40
2022-11-29T07:00:27.404Z,32.30
2022-11-29T07:01:27.391Z,33.40
2022-11-29T07:02:27.373Z,31.60
2022-11-29T07:03:27.310Z,34.00
2022-11-29T07:04:27.293Z,31.30
2022-11-29T07:05:27.274Z,31.20
2022-11-29T07:06:27.303Z,30.80
2022-11-29T07:07:27.322Z,30.90
2022-11-29T07:08:27.211Z,32.10
2022-11-29T07:09:27.273Z,33.40
2022-11-29T07:10:27.325Z,31.80
2022-11-29T07:11:27.230Z,33.20
2022-11-29T07:12:27.176Z,31.50
2022-11-29T07:13:27.184Z,35.40
2022-11-29T07:14:27.149Z,32.80
2022-11-29T07:15:27.259Z,32.60
2022-11-29T07:16:27.194Z,30.20
2022-11-29T07:17:27.202Z,34.10
2022-11-29T07:18:27.129Z,37.30
2022-11-29T07:19:27.080Z,37.50
2022-11-29T07:20:27.280Z,36.80
2022-11-29T07:21:27.099Z,36.40
2022-11-29T07:22:27.086Z,39.40
2022-11-29T07:23:27.057Z,37.80
2022-11-29T07:24:27.079Z,39.40
2022-11-29T07:25:27.112Z,42.50
2022-11-29T07:26:27.013Z,41.30
2022-11-29T07:27:26.977Z,41.60
2022-11-29T07:28:27.140Z,43.30
2022-11-29T07:29:27.028Z,39.20
2022-11-29T07:30:27.033Z,36.90
2022-11-29T07:31:26.962Z,37.80
2022-11-29T07:32:27.084Z,40.80
2022-11-29T07:33:27.026Z,36.60
2022-11-29T07:34:26.936Z,35.40
2022-11-29T07:35:26.896Z,38.00
2022-11-29T07:36:26.921Z,35.00
2022-11-29T07:37:26.926Z,41.30
2022-11-29T07:38:26.898Z,32.80
2022-11-29T07:39:26.977Z,31.90
2022-11-29T07:40:26.929Z,32.10
2022-11-29T07:41:26.842Z,31.00
2022-11-29T07:42:27.366Z,30.00
2022-11-29T07:43:26.857Z,31.20
2022-11-29T07:44:26.939Z,30.20
2022-11-29T07:45:26.956Z,28.60
2022-11-29T07:46:26.866Z,26.50
2022-11-29T07:47:30.111Z,27.30
2022-11-29T07:48:26.810Z,29.40
2022-11-29T07:49:26.830Z,29.50
2022-11-29T07:50:26.935Z,31.90
2022-11-29T07:51:26.752Z,28.50
2022-11-29T07:52:26.743Z,26.40
2022-11-29T07:53:26.783Z,26.60
2022-11-29T07:54:26.783Z,26.90
2022-11-29T07:55:26.711Z,26.80
2022-11-29T07:56:26.714Z,23.00
2022-11-29T07:57:26.647Z,25.70
2022-11-29T07:58:26.754Z,25.80
2022-11-29T07:59:26.688Z,23.30
2022-11-29T08:00:26.675Z,27.30
2022-11-29T08:01:26.656Z,26.50
2022-11-29T08:02:26.647Z,23.90
2022-11-29T08:03:26.625Z,23.80
2022-11-29T08:04:26.586Z,23.40
2022-11-29T08:05:26.612Z,22.70
2022-11-29T08:06:26.558Z,25.10
2022-11-29T08:07:26.595Z,21.30
2022-11-29T08:08:26.597Z,22.80
2022-11-29T08:09:26.520Z,20.60
2022-11-29T08:10:26.522Z,22.70
2022-11-29T08:11:26.486Z,21.60
2022-11-29T08:12:26.545Z,25.40
2022-11-29T08:13:26.523Z,26.20
2022-11-29T08:14:26.507Z,34.90
2022-11-29T08:15:26.472Z,34.60
2022-11-29T08:16:26.551Z,33.90
2022-11-29T08:17:26.431Z,36.90
2022-11-29T08:18:26.510Z,33.80
2022-11-29T08:19:26.405Z,34.00
2022-11-29T08:20:26.433Z,35.30
2022-11-29T08:21:26.389Z,32.00
2022-11-29T08:22:26.414Z,44.80
2022-11-29T08:23:26.396Z,34.60
2022-11-29T08:24:26.394Z,43.40
2022-11-29T08:25:26.361Z,37.10
2022-11-29T08:26:31.268Z,36.50
2022-11-29T08:27:26.410Z,38.60
2022-11-29T08:28:26.335Z,31.70
2022-11-29T08:29:26.300Z,36.70
2022-11-29T08:30:26.382Z,31.60
2022-11-29T08:31:26.306Z,29.60
2022-11-29T08:32:26.364Z,31.80
2022-11-29T08:33:26.280Z,31.70
2022-11-29T08:34:26.264Z,30.10
2022-11-29T08:35:26.228Z,32.50
2022-11-29T08:36:26.232Z,27.60
2022-11-29T08:37:26.257Z,29.90
2022-11-29T08:38:27.229Z,27.70
2022-11-29T08:39:27.088Z,28.60
2022-11-29T08:40:26.198Z,28.60
2022-11-29T08:41:26.399Z,30.90
2022-11-29T08:42:26.220Z,29.10
2022-11-29T08:43:26.159Z,24.50
2022-11-29T08:44:26.142Z,25.90
2022-11-29T08:45:26.259Z,24.20
2022-11-29T08:46:26.215Z,23.20
2022-11-29T08:47:26.111Z,20.60
2022-11-29T08:48:26.116Z,23.60
2022-11-29T08:49:26.085Z,22.30
2022-11-29T08:50:26.192Z,22.40
2022-11-29T08:51:26.050Z,22.20
2022-11-29T08:52:26.057Z,24.70
2022-11-29T08:53:26.021Z,24.90
2022-11-29T08:54:26.044Z,24.20
2022-11-29T08:55:26.031Z,23.20
2022-11-29T08:57:16.592Z,22.90
2022-11-29T08:57:40.449Z,20.90
2022-11-29T08:58:26.052Z,20.40
2022-11-29T08:59:25.999Z,18.70
2022-11-29T09:00:26.003Z,22.50
2022-11-29T09:01:26.068Z,20.80
2022-11-29T09:02:25.989Z,20.80
2022-11-29T09:03:25.928Z,21.40
2022-11-29T09:04:25.979Z,21.00
2022-11-29T09:05:25.896Z,21.60
2022-11-29T09:06:25.907Z,20.80
2022-11-29T09:07:26.050Z,19.80
2022-11-29T09:08:26.034Z,19.10
2022-11-29T09:09:25.899Z,20.20
2022-11-29T09:10:26.648Z,20.10
2022-11-29T09:11:25.881Z,18.40
2022-11-29T09:12:25.979Z,20.30
2022-11-29T09:13:25.927Z,21.20
2022-11-29T09:14:25.868Z,20.20
2022-11-29T09:15:25.868Z,20.30
2022-11-29T09:16:25.987Z,19.90
2022-11-29T09:17:26.150Z,19.20
2022-11-29T09:18:25.852Z,22.20
2022-11-29T09:19:25.869Z,19.80
2022-11-29T09:20:25.794Z,20.90
2022-11-29T09:21:25.806Z,19.80
2022-11-29T09:22:25.777Z,21.40
2022-11-29T09:23:25.759Z,20.10
2022-11-29T09:24:25.849Z,21.50
2022-11-29T09:25:25.801Z,21.90
2022-11-29T09:26:25.789Z,22.10
2022-11-29T09:27:25.758Z,23.20
2022-11-29T09:28:26.177Z,21.50
2022-11-29T09:29:25.734Z,22.20
2022-11-29T09:30:25.763Z,21.70
2022-11-29T09:31:25.764Z,23.80
2022-11-29T09:32:25.850Z,23.30
2022-11-29T09:33:25.707Z,25.80
2022-11-29T09:34:25.752Z,24.80
2022-11-29T09:35:25.727Z,27.30
2022-11-29T09:36:28.722Z,23.00
2022-11-29T09:37:25.641Z,26.40
2022-11-29T09:38:25.659Z,26.00
2022-11-29T09:39:25.948Z,29.60
2022-11-29T09:40:25.607Z,27.90
2022-11-29T09:41:25.618Z,25.20
2022-11-29T09:42:25.601Z,25.40
2022-11-29T09:43:25.610Z,29.00
2022-11-29T09:44:25.599Z,27.30
2022-11-29T09:45:25.607Z,28.30
2022-11-29T09:46:25.527Z,25.20
2022-11-29T09:47:25.556Z,27.30
2022-11-29T09:48:25.495Z,28.40
2022-11-29T09:49:25.575Z,25.20
2022-11-29T09:50:25.500Z,29.50
2022-11-29T09:51:25.395Z,30.40
2022-11-29T09:52:26.684Z,27.20
2022-11-29T09:53:25.601Z,27.40
2022-11-29T09:54:25.389Z,26.00
2022-11-29T09:55:26.249Z,26.20
2022-11-29T09:56:25.749Z,25.80
2022-11-29T09:57:25.378Z,24.70
2022-11-29T09:58:25.346Z,27.50
2022-11-29T09:59:25.337Z,27.10
2022-11-29T10:00:25.365Z,28.50
2022-11-29T10:01:25.362Z,26.80
2022-11-29T10:02:25.432Z,26.50
2022-11-29T10:03:25.550Z,25.70
2022-11-29T10:04:25.340Z,29.40
2022-11-29T10:05:25.283Z,29.00
2022-11-29T10:06:25.311Z,28.20
2022-11-29T10:07:25.396Z,28.50
2022-11-29T10:08:25.352Z,29.20
2022-11-29T10:09:27.442Z,28.40
2022-11-29T10:10:25.350Z,30.60
2022-11-29T10:11:25.820Z,30.70
2022-11-29T10:12:26.334Z,28.20
2022-11-29T10:13:25.372Z,32.20
2022-11-29T10:14:25.286Z,29.10
2022-11-29T10:15:25.392Z,30.50
2022-11-29T10:16:25.251Z,30.20
2022-11-29T10:17:25.241Z,28.60
2022-11-29T10:18:25.250Z,28.50
2022-11-29T10:19:25.140Z,29.90
2022-11-29T10:20:25.143Z,29.40
2022-11-29T10:21:25.237Z,32.10
2022-11-29T10:22:25.184Z,29.50
2022-11-29T10:23:25.348Z,27.80
2022-11-29T10:24:25.219Z,26.40
2022-11-29T10:25:25.285Z,27.70
2022-11-29T10:26:28.199Z,31.10
2022-11-29T10:27:25.726Z,32.10
2022-11-29T10:28:25.109Z,29.50
2022-11-29T10:29:24.989Z,31.10
2022-11-29T10:30:25.237Z,32.60
2022-11-29T10:31:25.492Z,31.00
2022-11-29T10:32:25.796Z,31.20
2022-11-29T10:33:24.956Z,29.50
2022-11-29T10:34:25.179Z,30.20
2022-11-29T10:35:25.039Z,31.10
2022-11-29T10:36:24.972Z,32.90
2022-11-29T10:37:25.046Z,33.00
2022-11-29T10:38:32.508Z,33.40
2022-11-29T10:39:25.127Z,34.30
2022-11-29T10:40:24.922Z,35.00
2022-11-29T10:41:26.700Z,36.40
2022-11-29T10:42:24.926Z,37.20
2022-11-29T10:43:24.882Z,35.40
2022-11-29T10:44:25.138Z,37.20
2022-11-29T10:45:24.884Z,34.20
2022-11-29T10:46:24.863Z,35.20
2022-11-29T10:47:24.778Z,35.10
2022-11-29T10:48:25.009Z,32.50
2022-11-29T10:49:24.808Z,33.50
2022-11-29T10:50:24.921Z,34.30
2022-11-29T10:51:24.726Z,33.30
2022-11-29T10:52:24.783Z,32.10
2022-11-29T10:53:24.714Z,36.00
2022-11-29T10:54:24.758Z,31.40
2022-11-29T10:55:24.723Z,32.00
2022-11-29T10:56:25.625Z,30.20
2022-11-29T10:57:24.710Z,32.60
2022-11-29T10:58:28.057Z,38.60
2022-11-29T10:59:24.688Z,32.30
2022-11-29T11:00:25.280Z,33.90
2022-11-29T11:01:24.820Z,32.00
2022-11-29T11:02:24.705Z,32.10
2022-11-29T11:03:24.638Z,31.10
2022-11-29T11:04:24.572Z,33.20
2022-11-29T11:05:24.806Z,32.10
2022-11-29T11:06:24.598Z,32.00
2022-11-29T11:07:24.783Z,27.80
2022-11-29T11:08:24.561Z,30.00
2022-11-29T11:09:24.596Z,29.30
2022-11-29T11:10:24.623Z,31.20
2022-11-29T11:11:25.137Z,32.00
2022-11-29T11:12:24.525Z,32.00
2022-11-29T11:13:24.558Z,30.10
2022-11-29T11:14:24.542Z,31.90
2022-11-29T11:15:24.725Z,30.10
2022-11-29T11:16:24.589Z,32.30
2022-11-29T11:17:28.298Z,33.30
2022-11-29T11:18:24.603Z,32.50
2022-11-29T11:19:24.523Z,29.70
2022-11-29T11:20:25.226Z,32.40
2022-11-29T11:21:24.489Z,31.90
2022-11-29T11:22:24.514Z,31.90
2022-11-29T11:23:24.439Z,30.30
2022-11-29T11:24:24.410Z,31.50
2022-11-29T11:25:25.481Z,32.90
2022-11-29T11:26:27.080Z,31.90
2022-11-29T11:27:26.257Z,32.80
2022-11-29T11:28:24.401Z,37.60
2022-11-29T11:29:24.361Z,33.80
2022-11-29T11:30:24.299Z,30.60
2022-11-29T11:31:24.415Z,32.10
2022-11-29T11:32:24.298Z,33.80
2022-11-29T11:33:24.315Z,30.60
2022-11-29T11:34:24.386Z,29.80
2022-11-29T11:35:24.280Z,32.10
2022-11-29T11:36:24.229Z,34.90
2022-11-29T11:37:24.279Z,34.50
2022-11-29T11:38:30.258Z,36.10
2022-11-29T11:39:24.266Z,36.30
2022-11-29T11:40:24.342Z,33.30
2022-11-29T11:41:24.228Z,32.80
2022-11-29T11:42:24.309Z,32.10
2022-11-29T11:43:24.215Z,34.50
2022-11-29T11:44:46.464Z,31.40
2022-11-29T11:45:24.189Z,34.10
2022-11-29T11:46:24.279Z,40.30
2022-11-29T11:47:24.167Z,33.20
2022-11-29T11:48:24.160Z,34.70
2022-11-29T11:49:24.302Z,31.10
2022-11-29T11:50:24.131Z,32.10
2022-11-29T11:51:24.141Z,32.40
2022-11-29T11:52:24.677Z,33.30
2022-11-29T11:53:24.073Z,34.30
2022-11-29T11:54:24.140Z,29.70
2022-11-29T11:55:24.091Z,30.00
2022-11-29T11:56:24.090Z,30.50
2022-11-29T11:57:24.087Z,31.80
2022-11-29T11:58:24.139Z,32.00
2022-11-29T11:59:23.987Z,34.70
2022-11-29T12:00:47.734Z,36.00
2022-11-29T12:01:23.990Z,33.60
2022-11-29T12:02:24.056Z,34.10
2022-11-29T12:03:24.673Z,41.60
2022-11-29T12:04:24.072Z,33.90
2022-11-29T12:05:24.544Z,35.10
2022-11-29T12:06:23.992Z,31.60
2022-11-29T12:07:38.934Z,32.10
2022-11-29T12:08:24.176Z,42.30
2022-11-29T12:09:25.941Z,35.10
2022-11-29T12:10:24.878Z,43.60
2022-11-29T12:11:23.899Z,39.50
2022-11-29T12:12:24.119Z,39.60
2022-11-29T12:13:23.849Z,40.00
2022-11-29T12:14:24.135Z,39.10
2022-11-29T12:15:23.802Z,46.10
2022-11-29T12:16:23.930Z,42.40
2022-11-29T12:17:24.644Z,41.70
2022-11-29T12:18:25.505Z,42.40
2022-11-29T12:19:23.801Z,36.90
2022-11-29T12:20:23.727Z,50.80
2022-11-29T12:21:25.431Z,49.00
2022-11-29T12:22:23.746Z,51.90
2022-11-29T12:23:23.748Z,44.80
2022-11-29T12:24:23.733Z,51.90
2022-11-29T12:25:23.863Z,45.20
2022-11-29T12:26:55.473Z,50.10
2022-11-29T12:27:23.765Z,45.40
2022-11-29T12:28:23.784Z,60.10
2022-11-29T12:29:23.709Z,48.20
2022-11-29T12:30:23.785Z,58.90
2022-11-29T12:31:23.807Z,57.10
2022-11-29T12:32:24.206Z,50.40
2022-11-29T12:33:23.602Z,56.00
2022-11-29T12:34:23.998Z,48.50
2022-11-29T12:35:24.250Z,46.10
2022-11-29T12:36:23.733Z,49.10
2022-11-29T12:37:23.613Z,48.90
2022-11-29T12:38:23.606Z,54.30
2022-11-29T12:39:23.678Z,59.60
2022-11-29T12:40:23.645Z,52.50
2022-11-29T12:41:23.608Z,52.80
2022-11-29T12:42:23.506Z,51.50
2022-11-29T12:43:23.599Z,50.80
2022-11-29T12:44:23.517Z,52.40
2022-11-29T12:45:23.518Z,49.80